createdAt,value
2018-03-16T00:00:12.263Z,4.73
2018-03-16T00:01:21.090Z,4.7
2018-03-16T00:02:29.920Z,4.66
2018-03-16T00:03:38.754Z,4.6
2018-03-16T00:04:47.859Z,4.66
2018-03-16T00:05:56.687Z,4.7
2018-03-16T00:07:05.516Z,4.84
2018-03-16T00:08:14.345Z,4.78
2018-03-16T00:09:23.173Z,4.63
2018-03-16T00:10:32.003Z,4.59
2018-03-16T00:11:40.933Z,4.58
2018-03-16T00:12:49.762Z,4.7
2018-03-16T00:13:58.588Z,4.59
2018-03-16T00:15:07.418Z,4.51
2018-03-16T00:16:16.248Z,4.58
2018-03-16T00:17:25.224Z,4.6
2018-03-16T00:18:34.052Z,4.54
2018-03-16T00:19:42.878Z,4.5
2018-03-16T00:20:51.706Z,4.48
2018-03-16T00:22:00.540Z,4.58
2018-03-16T00:23:09.792Z,4.58
2018-03-16T00:24:18.622Z,4.69
2018-03-16T00:25:27.449Z,4.62
2018-03-16T00:26:36.279Z,4.58
2018-03-16T00:27:45.105Z,4.58
2018-03-16T00:28:54.082Z,4.52
2018-03-16T00:30:02.912Z,4.58
2018-03-16T00:31:11.743Z,4.51
2018-03-16T00:32:20.571Z,4.55
2018-03-16T00:33:29.399Z,4.54
2018-03-16T00:34:38.383Z,4.51
2018-03-16T00:35:47.214Z,4.54
2018-03-16T00:36:56.045Z,4.54
2018-03-16T00:38:04.872Z,4.48
2018-03-16T00:39:13.709Z,4.62
2018-03-16T00:40:22.831Z,4.62
2018-03-16T00:41:31.659Z,4.77
2018-03-16T00:42:40.487Z,4.65
2018-03-16T00:43:49.316Z,4.6
2018-03-16T00:44:58.143Z,4.59
2018-03-16T00:46:07.076Z,4.59
2018-03-16T00:47:15.909Z,4.58
2018-03-16T00:48:25.013Z,4.5
2018-03-16T00:49:33.845Z,4.47
2018-03-16T00:50:42.667Z,4.51
2018-03-16T00:51:52.074Z,4.59
2018-03-16T00:53:00.904Z,4.47
2018-03-16T00:54:09.730Z,4.47
2018-03-16T00:55:18.560Z,4.44
2018-03-16T00:56:27.386Z,4.4
2018-03-16T00:57:36.213Z,4.41
2018-03-16T00:58:45.042Z,4.44
2018-03-16T00:59:53.871Z,4.45
2018-03-16T01:01:02.697Z,4.48
2018-03-16T01:02:11.526Z,4.44
2018-03-16T01:03:20.606Z,4.55
2018-03-16T01:04:29.435Z,4.44
2018-03-16T01:05:38.537Z,4.45
2018-03-16T01:06:47.368Z,4.47
2018-03-16T01:07:56.205Z,4.47
2018-03-16T01:09:05.185Z,4.42
2018-03-16T01:10:14.012Z,4.47
2018-03-16T01:11:22.843Z,4.41
2018-03-16T01:12:31.945Z,4.36
2018-03-16T01:13:40.774Z,4.3
2018-03-16T01:14:49.655Z,4.32
2018-03-16T01:15:58.483Z,4.45
2018-03-16T01:17:07.309Z,4.44
2018-03-16T01:18:16.150Z,4.44
2018-03-16T01:19:24.969Z,4.45
2018-03-16T01:20:33.848Z,4.47
2018-03-16T01:21:42.681Z,4.45
2018-03-16T01:22:51.510Z,4.4
2018-03-16T01:24:00.339Z,4.42
2018-03-16T01:25:09.166Z,4.36
2018-03-16T01:26:18.193Z,4.37
2018-03-16T01:27:27.298Z,4.37
2018-03-16T01:28:36.124Z,4.32
2018-03-16T01:29:44.953Z,4.33
2018-03-16T01:30:53.786Z,4.41
2018-03-16T01:32:02.715Z,4.55
2018-03-16T01:33:11.581Z,4.52
2018-03-16T01:34:20.372Z,4.27
2018-03-16T01:35:29.200Z,4.3
2018-03-16T01:36:38.028Z,4.32
2018-03-16T01:37:47.686Z,4.27
2018-03-16T01:38:56.514Z,4.36
2018-03-16T01:40:05.342Z,4.36
2018-03-16T01:41:14.174Z,4.36
2018-03-16T01:42:23.003Z,4.23
2018-03-16T01:43:32.080Z,4.11
2018-03-16T01:44:40.908Z,4.24
2018-03-16T01:45:49.737Z,4.22
2018-03-16T01:46:58.564Z,4.16
2018-03-16T01:48:07.685Z,4.14
2018-03-16T01:49:16.813Z,4.16
2018-03-16T01:50:25.640Z,4.2
2018-03-16T01:51:34.468Z,4.27
2018-03-16T01:52:43.299Z,4.32
2018-03-16T01:53:52.133Z,4.32
2018-03-16T01:55:01.237Z,4.29
2018-03-16T01:56:10.066Z,4.23
2018-03-16T01:57:18.895Z,4.22
2018-03-16T01:58:27.722Z,4.32
2018-03-16T01:59:36.555Z,4.29
2018-03-16T02:00:45.384Z,4.16
2018-03-16T02:01:54.487Z,4.12
2018-03-16T02:03:03.591Z,4.15
2018-03-16T02:04:12.423Z,4.08
2018-03-16T02:05:21.254Z,4.06
2018-03-16T02:06:30.380Z,4.11
2018-03-16T02:07:39.486Z,4.15
2018-03-16T02:08:48.315Z,4.06
2018-03-16T02:09:57.143Z,4.11
2018-03-16T02:11:06.245Z,4.08
2018-03-16T02:12:15.501Z,4.11
2018-03-16T02:13:24.332Z,4.06
2018-03-16T02:14:33.158Z,3.97
2018-03-16T02:15:41.986Z,4.04
2018-03-16T02:16:50.821Z,4.06
2018-03-16T02:17:59.644Z,3.98
2018-03-16T02:19:08.472Z,4.05
2018-03-16T02:20:17.298Z,3.94
2018-03-16T02:21:26.130Z,4
2018-03-16T02:22:34.958Z,3.93
2018-03-16T02:23:44.212Z,3.97
2018-03-16T02:24:53.314Z,3.91
2018-03-16T02:26:02.148Z,3.88
2018-03-16T02:27:11.525Z,3.91
2018-03-16T02:28:20.355Z,3.79
2018-03-16T02:29:29.596Z,3.91
2018-03-16T02:30:38.700Z,3.97
2018-03-16T02:31:47.527Z,3.88
2018-03-16T02:32:56.354Z,3.84
2018-03-16T02:34:05.185Z,3.9
2018-03-16T02:35:14.293Z,3.97
2018-03-16T02:36:23.426Z,4.06
2018-03-16T02:37:32.245Z,3.94
2018-03-16T02:38:41.072Z,3.97
2018-03-16T02:39:49.901Z,3.91
2018-03-16T02:40:58.736Z,3.87
2018-03-16T02:42:07.560Z,3.88
2018-03-16T02:43:16.388Z,3.93
2018-03-16T02:44:25.500Z,3.83
2018-03-16T02:45:34.318Z,3.86
2018-03-16T02:46:43.195Z,3.88
2018-03-16T02:47:52.588Z,3.94
2018-03-16T02:49:01.415Z,3.87
2018-03-16T02:50:10.246Z,3.88
2018-03-16T02:51:19.077Z,3.79
2018-03-16T02:52:28.054Z,3.8
2018-03-16T02:53:36.882Z,3.87
2018-03-16T02:54:45.712Z,3.83
2018-03-16T02:55:54.818Z,3.88
2018-03-16T02:57:03.654Z,3.84
2018-03-16T02:58:12.631Z,3.84
2018-03-16T02:59:21.463Z,3.8
2018-03-16T03:00:30.289Z,3.73
2018-03-16T03:01:39.117Z,3.76
2018-03-16T03:02:47.944Z,3.72
2018-03-16T03:03:56.872Z,3.78
2018-03-16T03:05:05.703Z,3.72
2018-03-16T03:06:14.535Z,3.72
2018-03-16T03:07:23.363Z,3.83
2018-03-16T03:08:32.191Z,3.78
2018-03-16T03:09:41.120Z,3.7
2018-03-16T03:10:49.948Z,3.76
2018-03-16T03:11:58.777Z,3.73
2018-03-16T03:13:07.888Z,3.8
2018-03-16T03:14:16.717Z,3.76
2018-03-16T03:15:25.846Z,3.78
2018-03-16T03:16:34.674Z,3.72
2018-03-16T03:17:43.782Z,3.73
2018-03-16T03:18:52.610Z,3.73
2018-03-16T03:20:01.434Z,3.66
2018-03-16T03:21:10.265Z,3.68
2018-03-16T03:22:19.091Z,3.69
2018-03-16T03:23:27.967Z,3.69
2018-03-16T03:24:36.799Z,3.7
2018-03-16T03:25:45.619Z,3.65
2018-03-16T03:26:54.649Z,3.68
2018-03-16T03:28:03.474Z,3.65
2018-03-16T03:29:12.302Z,3.66
2018-03-16T03:30:21.137Z,3.7
2018-03-16T03:31:29.967Z,3.65
2018-03-16T03:32:38.842Z,3.61
2018-03-16T03:33:47.670Z,3.72
2018-03-16T03:34:56.499Z,3.76
2018-03-16T03:36:05.325Z,3.76
2018-03-16T03:37:14.430Z,3.79
2018-03-16T03:38:23.833Z,3.76
2018-03-16T03:39:32.661Z,3.78
2018-03-16T03:40:41.491Z,3.72
2018-03-16T03:41:50.318Z,3.75
2018-03-16T03:42:59.148Z,3.7
2018-03-16T03:44:08.276Z,3.65
2018-03-16T03:45:17.105Z,3.72
2018-03-16T03:46:25.932Z,3.72
2018-03-16T03:47:34.758Z,3.78
2018-03-16T03:48:43.586Z,3.75
2018-03-16T03:49:52.720Z,3.69
2018-03-16T03:51:01.548Z,3.75
2018-03-16T03:52:10.378Z,3.52
2018-03-16T03:53:19.204Z,3.61
2018-03-16T03:54:28.030Z,3.57
2018-03-16T03:55:36.861Z,3.55
2018-03-16T03:56:45.688Z,3.66
2018-03-16T03:57:54.518Z,3.58
2018-03-16T03:59:03.620Z,3.6
2018-03-16T04:00:12.723Z,3.54
2018-03-16T04:01:21.601Z,3.55
2018-03-16T04:02:30.426Z,3.72
2018-03-16T04:03:39.531Z,3.6
2018-03-16T04:04:48.360Z,3.52
2018-03-16T04:05:57.214Z,3.6
2018-03-16T04:07:06.321Z,3.62
2018-03-16T04:08:15.147Z,3.66
2018-03-16T04:09:23.974Z,3.5
2018-03-16T04:10:32.802Z,3.52
2018-03-16T04:11:41.631Z,3.6
2018-03-16T04:12:50.605Z,3.55
2018-03-16T04:13:59.432Z,3.51
2018-03-16T04:15:08.259Z,3.47
2018-03-16T04:16:17.089Z,3.57
2018-03-16T04:17:25.917Z,3.55
2018-03-16T04:18:34.892Z,3.57
2018-03-16T04:19:43.721Z,3.54
2018-03-16T04:20:52.549Z,3.52
2018-03-16T04:22:01.653Z,3.42
2018-03-16T04:23:10.482Z,3.45
2018-03-16T04:24:19.721Z,3.57
2018-03-16T04:25:28.550Z,3.51
2018-03-16T04:26:37.930Z,3.51
2018-03-16T04:27:46.754Z,3.66
2018-03-16T04:28:55.582Z,3.51
2018-03-16T04:30:04.412Z,3.54
2018-03-16T04:31:13.239Z,3.47
2018-03-16T04:32:22.067Z,3.42
2018-03-16T04:33:30.895Z,3.42
2018-03-16T04:34:39.723Z,3.43
2018-03-16T04:35:48.603Z,3.47
2018-03-16T04:36:57.703Z,3.39
2018-03-16T04:38:06.533Z,3.39
2018-03-16T04:39:15.358Z,3.55
2018-03-16T04:40:24.187Z,3.52
2018-03-16T04:41:33.264Z,3.54
2018-03-16T04:42:42.092Z,3.52
2018-03-16T04:43:50.919Z,3.52
2018-03-16T04:44:59.744Z,3.54
2018-03-16T04:46:08.574Z,3.5
2018-03-16T04:47:17.551Z,3.52
2018-03-16T04:48:26.378Z,3.54
2018-03-16T04:49:35.206Z,3.47
2018-03-16T04:50:44.030Z,3.65
2018-03-16T04:51:52.857Z,3.52
2018-03-16T04:53:01.735Z,3.58
2018-03-16T04:54:10.835Z,3.54
2018-03-16T04:55:19.664Z,3.51
2018-03-16T04:56:28.492Z,3.52
2018-03-16T04:57:37.318Z,3.43
2018-03-16T04:58:46.298Z,3.48
2018-03-16T04:59:55.124Z,3.45
2018-03-16T05:01:04.228Z,3.48
2018-03-16T05:02:13.331Z,3.51
2018-03-16T05:03:22.159Z,3.51
2018-03-16T05:04:31.137Z,3.47
2018-03-16T05:05:39.965Z,3.58
2018-03-16T05:06:48.791Z,3.47
2018-03-16T05:07:57.896Z,3.58
2018-03-16T05:09:06.725Z,3.48
2018-03-16T05:10:15.706Z,3.51
2018-03-16T05:11:24.534Z,3.51
2018-03-16T05:12:33.367Z,3.4
2018-03-16T05:13:42.194Z,3.48
2018-03-16T05:14:51.025Z,3.39
2018-03-16T05:16:00.571Z,3.36
2018-03-16T05:17:09.357Z,3.42
2018-03-16T05:18:18.499Z,3.36
2018-03-16T05:19:27.328Z,3.42
2018-03-16T05:20:36.153Z,3.4
2018-03-16T05:21:45.032Z,3.35
2018-03-16T05:22:53.862Z,3.45
2018-03-16T05:24:02.689Z,3.48
2018-03-16T05:25:11.516Z,3.45
2018-03-16T05:26:20.619Z,3.31
2018-03-16T05:27:29.597Z,3.32
2018-03-16T05:28:38.426Z,3.31
2018-03-16T05:29:47.258Z,3.32
2018-03-16T05:30:56.079Z,3.23
2018-03-16T05:32:04.907Z,3.23
2018-03-16T05:33:14.041Z,3.36
2018-03-16T05:34:22.842Z,3.26
2018-03-16T05:35:31.667Z,3.28
2018-03-16T05:36:40.771Z,3.24
2018-03-16T05:37:49.601Z,3.26
2018-03-16T05:38:58.427Z,3.43
2018-03-16T05:40:07.256Z,3.39
2018-03-16T05:41:16.083Z,3.43
2018-03-16T05:42:24.923Z,3.35
2018-03-16T05:43:33.736Z,3.47
2018-03-16T05:44:42.565Z,3.42
2018-03-16T05:45:51.393Z,3.43
2018-03-16T05:47:00.218Z,3.5
2018-03-16T05:48:09.047Z,3.5
2018-03-16T05:49:17.872Z,3.5
2018-03-16T05:50:27.000Z,3.57
2018-03-16T05:51:35.828Z,3.4
2018-03-16T05:52:44.656Z,3.35
2018-03-16T05:53:53.485Z,3.47
2018-03-16T05:55:02.733Z,3.36
2018-03-16T05:56:11.562Z,3.42
2018-03-16T05:57:20.399Z,3.4
2018-03-16T05:58:29.217Z,3.5
2018-03-16T05:59:38.045Z,3.36
2018-03-16T06:00:47.234Z,3.48
2018-03-16T06:01:56.151Z,3.39
2018-03-16T06:03:04.974Z,3.47
2018-03-16T06:04:13.804Z,3.45
2018-03-16T06:05:22.633Z,3.51
2018-03-16T06:06:31.461Z,3.5
2018-03-16T06:07:40.341Z,3.47
2018-03-16T06:08:49.173Z,3.33
2018-03-16T06:09:58.006Z,3.39
2018-03-16T06:11:06.835Z,3.39
2018-03-16T06:12:15.661Z,3.39
2018-03-16T06:13:24.639Z,3.35
2018-03-16T06:14:33.465Z,3.36
2018-03-16T06:15:42.292Z,3.32
2018-03-16T06:16:51.123Z,3.32
2018-03-16T06:17:59.948Z,3.29
2018-03-16T06:19:08.926Z,3.21
2018-03-16T06:20:17.754Z,3.28
2018-03-16T06:21:26.578Z,3.33
2018-03-16T06:22:35.407Z,3.33
2018-03-16T06:23:44.234Z,3.33
2018-03-16T06:24:53.113Z,3.39
2018-03-16T06:26:01.946Z,3.45
2018-03-16T06:27:11.048Z,3.33
2018-03-16T06:28:19.873Z,3.48
2018-03-16T06:29:28.702Z,3.43
2018-03-16T06:30:37.677Z,3.29
2018-03-16T06:31:46.503Z,3.26
2018-03-16T06:32:55.335Z,3.29
2018-03-16T06:34:04.437Z,3.5
2018-03-16T06:35:13.264Z,3.54
2018-03-16T06:36:22.093Z,3.4
2018-03-16T06:37:31.201Z,3.39
2018-03-16T06:38:40.031Z,3.31
2018-03-16T06:39:48.863Z,3.23
2018-03-16T06:40:57.688Z,3.28
2018-03-16T06:42:06.668Z,3.36
2018-03-16T06:43:15.508Z,3.29
2018-03-16T06:44:24.673Z,3.4
2018-03-16T06:45:33.500Z,3.32
2018-03-16T06:46:42.328Z,3.23
2018-03-16T06:47:51.205Z,3.18
2018-03-16T06:49:00.035Z,3.29
2018-03-16T06:50:08.867Z,3.24
2018-03-16T06:51:17.970Z,3.39
2018-03-16T06:52:26.798Z,3.36
2018-03-16T06:53:35.725Z,3.45
2018-03-16T06:54:44.552Z,3.31
2018-03-16T06:55:53.379Z,3.23
2018-03-16T06:57:02.212Z,3.18
2018-03-16T06:58:11.039Z,3.23
2018-03-16T06:59:19.867Z,3.11
2018-03-16T07:00:28.707Z,3.17
2018-03-16T07:01:37.529Z,3.13
2018-03-16T07:02:46.356Z,3.11
2018-03-16T07:03:55.562Z,3.17
2018-03-16T07:05:04.393Z,3.15
2018-03-16T07:06:13.224Z,3.08
2018-03-16T07:07:22.328Z,3.15
2018-03-16T07:08:31.198Z,3.18
2018-03-16T07:09:39.983Z,3.14
2018-03-16T07:10:49.088Z,3.13
2018-03-16T07:11:57.915Z,3.14
2018-03-16T07:13:06.744Z,3.24
2018-03-16T07:14:15.569Z,3.14
2018-03-16T07:15:24.399Z,3.1
2018-03-16T07:16:33.526Z,3.13
2018-03-16T07:17:42.353Z,3.08
2018-03-16T07:18:51.458Z,3.06
2018-03-16T07:20:00.286Z,2.93
2018-03-16T07:21:09.113Z,3.13
2018-03-16T07:22:18.040Z,3.15
2018-03-16T07:23:26.868Z,3.15
2018-03-16T07:24:35.697Z,3.21
2018-03-16T07:25:44.526Z,3.17
2018-03-16T07:26:53.352Z,3.13
2018-03-16T07:28:02.233Z,3.15
2018-03-16T07:29:11.064Z,3.1
2018-03-16T07:30:19.893Z,3.13
2018-03-16T07:31:28.998Z,3.26
2018-03-16T07:32:37.825Z,3.26
2018-03-16T07:33:46.755Z,3.18
2018-03-16T07:34:55.584Z,3.18
2018-03-16T07:36:04.412Z,3.13
2018-03-16T07:37:13.270Z,3.08
2018-03-16T07:38:22.069Z,3.13
2018-03-16T07:39:31.042Z,3.03
2018-03-16T07:40:39.869Z,3.13
2018-03-16T07:41:48.696Z,3.13
2018-03-16T07:42:57.523Z,3.13
2018-03-16T07:44:06.348Z,3.29
2018-03-16T07:45:15.178Z,3.23
2018-03-16T07:46:24.007Z,3.26
2018-03-16T07:47:32.840Z,3.4
2018-03-16T07:48:41.664Z,3.28
2018-03-16T07:49:50.492Z,3.15
2018-03-16T07:50:59.618Z,3.17
2018-03-16T07:52:08.446Z,3.2
2018-03-16T07:53:17.279Z,3.11
2018-03-16T07:54:26.360Z,2.99
2018-03-16T07:55:35.191Z,2.97
2018-03-16T07:56:44.068Z,2.97
2018-03-16T07:57:53.173Z,3.11
2018-03-16T07:59:02.000Z,3
2018-03-16T08:00:10.826Z,2.99
2018-03-16T08:01:19.658Z,3.02
2018-03-16T08:02:28.531Z,2.95
2018-03-16T08:03:37.358Z,2.95
2018-03-16T08:04:46.186Z,2.95
2018-03-16T08:05:55.018Z,2.87
2018-03-16T08:07:03.839Z,2.74
2018-03-16T08:08:12.768Z,2.78
2018-03-16T08:09:21.593Z,2.79
2018-03-16T08:10:30.426Z,2.78
2018-03-16T08:11:39.248Z,2.78
2018-03-16T08:12:48.075Z,2.92
2018-03-16T08:13:57.231Z,2.95
2018-03-16T08:15:06.096Z,3
2018-03-16T08:16:14.885Z,2.84
2018-03-16T08:17:23.988Z,2.93
2018-03-16T08:18:32.821Z,2.9
2018-03-16T08:19:41.896Z,2.87
2018-03-16T08:20:50.725Z,3
2018-03-16T08:21:59.555Z,2.97
2018-03-16T08:23:08.382Z,2.92
2018-03-16T08:24:17.485Z,2.89
2018-03-16T08:25:26.694Z,3.05
2018-03-16T08:26:35.795Z,3.08
2018-03-16T08:27:44.622Z,2.95
2018-03-16T08:28:53.448Z,2.97
2018-03-16T08:30:02.278Z,2.93
2018-03-16T08:31:11.435Z,2.93
2018-03-16T08:32:20.262Z,2.78
2018-03-16T08:33:29.088Z,2.77
2018-03-16T08:34:37.917Z,2.82
2018-03-16T08:35:46.746Z,2.78
2018-03-16T08:36:55.621Z,2.79
2018-03-16T08:38:04.452Z,2.77
2018-03-16T08:39:13.285Z,2.69
2018-03-16T08:40:22.107Z,2.9
2018-03-16T08:41:30.939Z,2.9
2018-03-16T08:42:39.868Z,2.82
2018-03-16T08:43:48.694Z,2.77
2018-03-16T08:44:57.520Z,2.75
2018-03-16T08:46:06.360Z,2.79
2018-03-16T08:47:15.181Z,2.75
2018-03-16T08:48:24.587Z,2.74
2018-03-16T08:49:33.416Z,2.78
2018-03-16T08:50:42.248Z,2.79
2018-03-16T08:51:51.077Z,2.79
2018-03-16T08:52:59.904Z,2.72
2018-03-16T08:54:08.832Z,2.78
2018-03-16T08:55:17.663Z,2.72
2018-03-16T08:56:26.489Z,2.75
2018-03-16T08:57:35.317Z,2.77
2018-03-16T08:58:44.146Z,2.74
2018-03-16T08:59:52.972Z,2.72
2018-03-16T09:01:01.800Z,2.74
2018-03-16T09:02:10.628Z,2.72
2018-03-16T09:03:19.454Z,2.79
2018-03-16T09:04:28.283Z,2.79
2018-03-16T09:05:37.263Z,2.72
2018-03-16T09:06:46.090Z,2.74
2018-03-16T09:07:54.923Z,2.69
2018-03-16T09:09:03.743Z,2.64
2018-03-16T09:10:12.569Z,2.74
2018-03-16T09:11:21.554Z,2.66
2018-03-16T09:12:30.439Z,2.74
2018-03-16T09:13:39.561Z,2.72
2018-03-16T09:14:48.387Z,2.79
2018-03-16T09:15:57.216Z,2.77
2018-03-16T09:17:06.743Z,2.77
2018-03-16T09:18:15.627Z,2.77
2018-03-16T09:19:24.400Z,2.74
2018-03-16T09:20:33.228Z,2.81
2018-03-16T09:21:42.056Z,2.92
2018-03-16T09:22:50.884Z,2.93
2018-03-16T09:23:59.710Z,2.92
2018-03-16T09:25:08.538Z,2.82
2018-03-16T09:26:17.369Z,2.78
2018-03-16T09:27:26.208Z,2.85
2018-03-16T09:28:35.589Z,2.75
2018-03-16T09:29:44.428Z,2.75
2018-03-16T09:30:53.523Z,2.69
2018-03-16T09:32:02.628Z,2.79
2018-03-16T09:33:11.454Z,2.85
2018-03-16T09:34:20.433Z,2.77
2018-03-16T09:35:29.263Z,2.74
2018-03-16T09:36:38.090Z,2.81
2018-03-16T09:37:46.918Z,2.77
2018-03-16T09:38:56.022Z,2.82
2018-03-16T09:40:05.050Z,2.77
2018-03-16T09:41:13.884Z,2.71
2018-03-16T09:42:22.710Z,2.54
2018-03-16T09:43:31.540Z,2.57
2018-03-16T09:44:40.368Z,2.57
2018-03-16T09:45:49.344Z,2.64
2018-03-16T09:46:58.454Z,2.74
2018-03-16T09:48:07.278Z,2.74
2018-03-16T09:49:16.105Z,2.75
2018-03-16T09:50:24.934Z,2.75
2018-03-16T09:51:34.063Z,2.93
2018-03-16T09:52:42.891Z,2.85
2018-03-16T09:53:51.720Z,2.77
2018-03-16T09:55:00.556Z,2.79
2018-03-16T09:56:09.381Z,2.78
2018-03-16T09:57:18.260Z,2.69
2018-03-16T09:58:27.089Z,2.59
2018-03-16T09:59:35.916Z,2.48
2018-03-16T10:00:44.743Z,2.6
2018-03-16T10:01:53.573Z,2.61
2018-03-16T10:03:03.043Z,2.71
2018-03-16T10:04:11.870Z,2.72
2018-03-16T10:05:20.699Z,2.64
2018-03-16T10:06:29.527Z,2.64
2018-03-16T10:07:38.629Z,2.64
2018-03-16T10:08:47.608Z,2.61
2018-03-16T10:09:56.438Z,2.54
2018-03-16T10:11:05.266Z,2.66
2018-03-16T10:12:14.093Z,2.61
2018-03-16T10:13:22.923Z,2.53
2018-03-16T10:14:31.801Z,2.53
2018-03-16T10:15:40.630Z,2.59
2018-03-16T10:16:49.457Z,2.61
2018-03-16T10:17:58.289Z,2.79
2018-03-16T10:19:07.388Z,2.6
2018-03-16T10:20:16.516Z,2.53
2018-03-16T10:21:25.345Z,2.39
2018-03-16T10:22:34.177Z,2.48
2018-03-16T10:23:43.005Z,2.41
2018-03-16T10:24:51.836Z,2.43
2018-03-16T10:26:01.203Z,2.57
2018-03-16T10:27:10.027Z,2.66
2018-03-16T10:28:19.127Z,2.54
2018-03-16T10:29:27.956Z,2.46
2018-03-16T10:30:37.061Z,2.38
2018-03-16T10:31:45.939Z,2.34
2018-03-16T10:32:54.769Z,2.41
2018-03-16T10:34:03.878Z,2.52
2018-03-16T10:35:12.712Z,2.52
2018-03-16T10:36:21.539Z,2.42
2018-03-16T10:37:30.668Z,2.61
2018-03-16T10:38:39.498Z,2.57
2018-03-16T10:39:48.324Z,2.53
2018-03-16T10:40:57.150Z,2.56
2018-03-16T10:42:05.976Z,2.53
2018-03-16T10:43:14.804Z,2.45
2018-03-16T10:44:23.914Z,2.41
2018-03-16T10:45:32.744Z,2.41
2018-03-16T10:46:41.568Z,2.39
2018-03-16T10:47:50.395Z,2.41
2018-03-16T10:48:59.380Z,2.31
2018-03-16T10:50:08.435Z,2.53
2018-03-16T10:51:17.264Z,2.43
2018-03-16T10:52:26.092Z,2.42
2018-03-16T10:53:34.919Z,2.38
2018-03-16T10:54:43.748Z,2.35
2018-03-16T10:55:52.578Z,2.6
2018-03-16T10:57:01.442Z,2.57
2018-03-16T10:58:10.233Z,2.41
2018-03-16T10:59:19.060Z,2.49
2018-03-16T11:00:28.044Z,2.53
2018-03-16T11:01:37.154Z,2.6
2018-03-16T11:02:45.989Z,2.52
2018-03-16T11:03:54.828Z,2.56
2018-03-16T11:05:03.665Z,2.6
2018-03-16T11:06:12.605Z,2.56
2018-03-16T11:07:21.450Z,2.61
2018-03-16T11:08:30.569Z,2.56
2018-03-16T11:09:39.408Z,2.53
2018-03-16T11:10:48.246Z,2.53
2018-03-16T11:11:57.141Z,2.54
2018-03-16T11:13:05.971Z,2.64
2018-03-16T11:14:14.810Z,2.56
2018-03-16T11:15:23.651Z,2.56
2018-03-16T11:16:32.538Z,2.61
2018-03-16T11:17:41.478Z,2.72
2018-03-16T11:18:50.312Z,2.81
2018-03-16T11:19:59.149Z,2.74
2018-03-16T11:21:07.989Z,2.69
2018-03-16T11:22:16.832Z,2.67
2018-03-16T11:23:25.766Z,2.79
2018-03-16T11:24:34.612Z,2.71
2018-03-16T11:25:43.452Z,2.67
2018-03-16T11:26:52.290Z,2.66
2018-03-16T11:28:01.128Z,2.63
2018-03-16T11:29:10.114Z,2.75
2018-03-16T11:30:18.953Z,2.9
2018-03-16T11:31:27.787Z,2.9
2018-03-16T11:32:36.622Z,2.93
2018-03-16T11:33:45.468Z,2.96
2018-03-16T11:34:54.729Z,2.75
2018-03-16T11:36:03.569Z,2.72
2018-03-16T11:37:12.403Z,2.79
2018-03-16T11:38:21.230Z,2.75
2018-03-16T11:39:30.372Z,2.72
2018-03-16T11:40:39.503Z,2.72
2018-03-16T11:41:48.349Z,2.74
2018-03-16T11:42:57.179Z,2.72
2018-03-16T11:44:06.004Z,2.79
2018-03-16T11:45:14.833Z,2.75
2018-03-16T11:46:24.042Z,2.71
2018-03-16T11:47:32.871Z,2.56
2018-03-16T11:48:41.978Z,2.66
2018-03-16T11:49:50.807Z,2.74
2018-03-16T11:50:59.669Z,2.57
2018-03-16T11:52:08.843Z,2.6
2018-03-16T11:53:17.680Z,2.53
2018-03-16T11:54:26.507Z,2.48
2018-03-16T11:55:35.338Z,2.39
2018-03-16T11:56:44.170Z,2.71
2018-03-16T11:57:53.407Z,2.53
2018-03-16T11:59:02.233Z,2.64
2018-03-16T12:00:11.063Z,2.63
2018-03-16T12:01:19.892Z,2.56
2018-03-16T12:02:28.717Z,2.48
2018-03-16T12:03:37.546Z,2.6
2018-03-16T12:04:46.389Z,2.79
2018-03-16T12:05:55.699Z,2.79
2018-03-16T12:07:04.525Z,2.71
2018-03-16T12:08:13.362Z,2.61
2018-03-16T12:09:22.324Z,2.78
2018-03-16T12:10:31.156Z,2.69
2018-03-16T12:11:39.986Z,2.75
2018-03-16T12:12:48.813Z,2.78
2018-03-16T12:13:57.644Z,2.74
2018-03-16T12:15:06.903Z,2.77
2018-03-16T12:16:15.733Z,2.79
2018-03-16T12:17:24.562Z,2.71
2018-03-16T12:18:33.410Z,2.78
2018-03-16T12:19:42.523Z,2.66
2018-03-16T12:20:51.652Z,2.71
2018-03-16T12:22:00.480Z,2.67
2018-03-16T12:23:09.310Z,2.71
2018-03-16T12:24:18.137Z,2.74
2018-03-16T12:25:26.995Z,2.72
2018-03-16T12:26:35.873Z,2.84
2018-03-16T12:27:44.700Z,2.79
2018-03-16T12:28:53.530Z,2.71
2018-03-16T12:30:02.412Z,2.61
2018-03-16T12:31:11.823Z,2.77
2018-03-16T12:32:20.759Z,2.81
2018-03-16T12:33:29.587Z,2.78
2018-03-16T12:34:38.434Z,2.67
2018-03-16T12:35:47.547Z,2.54
2018-03-16T12:36:56.375Z,2.49
2018-03-16T12:38:05.259Z,2.64
2018-03-16T12:39:14.368Z,2.69
2018-03-16T12:40:23.471Z,2.66
2018-03-16T12:41:32.297Z,2.71
2018-03-16T12:42:41.130Z,2.79
2018-03-16T12:43:50.365Z,2.74
2018-03-16T12:44:59.187Z,2.78
2018-03-16T12:46:08.016Z,2.72
2018-03-16T12:47:16.845Z,2.74
2018-03-16T12:48:25.675Z,2.74
2018-03-16T12:49:34.556Z,2.74
2018-03-16T12:50:43.386Z,2.92
2018-03-16T12:51:52.222Z,2.79
2018-03-16T12:53:01.072Z,2.72
2018-03-16T12:54:09.900Z,2.79
2018-03-16T12:55:18.933Z,2.72
2018-03-16T12:56:27.761Z,2.75
2018-03-16T12:57:36.594Z,2.74
2018-03-16T12:58:45.696Z,2.75
2018-03-16T12:59:55.027Z,2.75
2018-03-16T13:01:03.928Z,2.82
2018-03-16T13:02:12.758Z,2.77
2018-03-16T13:03:21.884Z,2.79
2018-03-16T13:04:30.711Z,2.87
2018-03-16T13:05:39.537Z,2.77
2018-03-16T13:06:48.415Z,2.74
2018-03-16T13:07:57.300Z,2.75
2018-03-16T13:09:06.209Z,2.9
2018-03-16T13:10:15.096Z,2.92
2018-03-16T13:11:24.029Z,2.89
2018-03-16T13:12:33.018Z,2.92
2018-03-16T13:13:41.904Z,2.87
2018-03-16T13:14:50.793Z,2.87
2018-03-16T13:15:59.678Z,2.77
2018-03-16T13:17:08.579Z,2.74
2018-03-16T13:18:17.750Z,2.63
2018-03-16T13:19:26.638Z,2.74
2018-03-16T13:20:35.526Z,2.64
2018-03-16T13:21:44.409Z,2.72
2018-03-16T13:22:53.293Z,2.61
2018-03-16T13:24:02.478Z,2.77
2018-03-16T13:25:11.644Z,2.75
2018-03-16T13:26:20.813Z,2.67
2018-03-16T13:27:29.769Z,2.77
2018-03-16T13:28:38.572Z,2.85
2018-03-16T13:29:47.575Z,2.93
2018-03-16T13:30:56.437Z,2.78
2018-03-16T13:32:05.288Z,2.87
2018-03-16T13:33:14.146Z,2.78
2018-03-16T13:34:22.998Z,2.81
2018-03-16T13:35:31.991Z,2.77
2018-03-16T13:36:40.839Z,2.93
2018-03-16T13:37:49.674Z,2.93
2018-03-16T13:38:58.529Z,2.93
2018-03-16T13:40:07.369Z,3
2018-03-16T13:41:16.373Z,3.03
2018-03-16T13:42:25.221Z,2.9
2018-03-16T13:43:34.057Z,2.69
2018-03-16T13:44:42.923Z,2.72
2018-03-16T13:45:51.770Z,2.89
2018-03-16T13:47:00.617Z,2.74
2018-03-16T13:48:09.450Z,2.79
2018-03-16T13:49:18.560Z,2.96
2018-03-16T13:50:27.394Z,2.79
2018-03-16T13:51:36.556Z,2.78
2018-03-16T13:52:45.403Z,2.75
2018-03-16T13:53:54.248Z,2.82
2018-03-16T13:55:03.093Z,2.85
2018-03-16T13:56:11.934Z,3.02
2018-03-16T13:57:20.791Z,3.05
2018-03-16T13:58:29.637Z,3.15
2018-03-16T13:59:38.482Z,3.02
2018-03-16T14:00:47.325Z,3.02
2018-03-16T14:01:56.757Z,3.06
2018-03-16T14:03:05.601Z,2.9
2018-03-16T14:04:14.452Z,2.84
2018-03-16T14:05:23.581Z,2.87
2018-03-16T14:06:32.439Z,2.95
2018-03-16T14:07:41.271Z,2.93
2018-03-16T14:08:50.122Z,3
2018-03-16T14:09:58.965Z,3.05
2018-03-16T14:11:07.817Z,2.92
2018-03-16T14:12:16.702Z,2.99
2018-03-16T14:13:25.552Z,3.23
2018-03-16T14:14:34.402Z,3.24
2018-03-16T14:15:43.474Z,3.11
2018-03-16T14:16:52.321Z,3.08
2018-03-16T14:18:01.474Z,3.02
2018-03-16T14:19:10.314Z,3
2018-03-16T14:20:19.158Z,2.96
2018-03-16T14:21:28.008Z,2.75
2018-03-16T14:22:37.129Z,2.77
2018-03-16T14:23:46.279Z,2.82
2018-03-16T14:24:55.132Z,2.93
2018-03-16T14:26:03.987Z,2.93
2018-03-16T14:27:12.826Z,2.95
2018-03-16T14:28:21.663Z,2.79
2018-03-16T14:29:30.517Z,2.92
2018-03-16T14:30:39.366Z,2.77
2018-03-16T14:31:48.204Z,2.97
2018-03-16T14:32:57.036Z,2.77
2018-03-16T14:34:05.876Z,2.84
2018-03-16T14:35:14.966Z,2.78
2018-03-16T14:36:24.359Z,2.81
2018-03-16T14:37:33.200Z,2.99
2018-03-16T14:38:42.045Z,2.96
2018-03-16T14:39:50.889Z,3.08
2018-03-16T14:40:59.818Z,2.9
2018-03-16T14:42:08.675Z,2.79
2018-03-16T14:43:17.517Z,2.89
2018-03-16T14:44:26.378Z,2.81
2018-03-16T14:45:35.494Z,2.74
2018-03-16T14:46:44.385Z,2.78
2018-03-16T14:47:53.226Z,2.75
2018-03-16T14:49:02.061Z,2.74
2018-03-16T14:50:10.906Z,2.75
2018-03-16T14:51:19.743Z,2.61
2018-03-16T14:52:28.638Z,2.67
2018-03-16T14:53:37.630Z,2.67
2018-03-16T14:54:46.466Z,2.77
2018-03-16T14:55:55.300Z,2.54
2018-03-16T14:57:04.135Z,2.66
2018-03-16T14:58:13.027Z,2.49
2018-03-16T14:59:22.134Z,2.69
2018-03-16T15:00:30.974Z,2.63
2018-03-16T15:01:39.866Z,2.53
2018-03-16T15:02:48.659Z,2.67
2018-03-16T15:03:57.605Z,2.67
2018-03-16T15:05:06.456Z,2.61
2018-03-16T15:06:15.302Z,2.53
2018-03-16T15:07:24.140Z,2.57
2018-03-16T15:08:32.980Z,2.79
2018-03-16T15:09:41.869Z,2.72
2018-03-16T15:10:50.716Z,2.6
2018-03-16T15:11:59.559Z,2.59
2018-03-16T15:13:08.394Z,2.45
2018-03-16T15:14:17.241Z,2.67
2018-03-16T15:15:26.186Z,2.61
2018-03-16T15:16:35.312Z,2.6
2018-03-16T15:17:44.152Z,2.59
2018-03-16T15:18:52.990Z,2.54
2018-03-16T15:20:01.826Z,2.77